This is the latest recevied weather packets stored in our database for station/object F4CYQ-10. If no packets are shown the sender has not sent any weather packets the latest 10 day(s).
| Time | Temp. | Humidity | Pressure | Rain* | Wind** | Luminosity | Snow |
|---|---|---|---|---|---|---|---|
| 1777211262 | 18.89° C | 55% | 1021.9 hPa | - | - | - | - |
| 1777210361 | 20.56° C | 55% | 1022 hPa | - | - | - | - |
| 1777209770 | 18.89° C | 55% | 1022 hPa | - | - | - | - |
| 1777208868 | 18.89° C | 55% | 1022.1 hPa | - | - | - | - |
| 1777207968 | 19.44° C | 56% | 1022.1 hPa | - | - | - | - |
| 1777205355 | 17.78° C | 55% | 1022.2 hPa | - | - | - | - |
| 1777204453 | 18.89° C | 55% | 1022.3 hPa | - | - | - | - |
| 1777203552 | 20.56° C | 57% | 1022.5 hPa | - | - | - | - |
| 1777203535 | 20° C | 57% | 1022.6 hPa | - | - | - | - |
| 1777202862 | 19.44° C | 57% | 1022.6 hPa | - | - | - | - |
| 1777201960 | 18.89° C | 57% | 1022.6 hPa | - | - | - | - |
| 1777201059 | 20° C | 57% | 1022.6 hPa | - | - | - | - |
| 1777200840 | 18.89° C | 57% | 1022.7 hPa | - | - | - | - |
| 1777199939 | 18.89° C | 57% | 1022.8 hPa | - | - | - | - |
| 1777199038 | 18.89° C | 57% | 1022.8 hPa | - | - | - | - |
| 1777198136 | 20° C | 55% | 1023 hPa | - | - | - | - |
| 1777198043 | 19.44° C | 55% | 1023 hPa | - | - | - | - |
| 1777197142 | 18.33° C | 55% | 1023 hPa | - | - | - | - |
| 1777196241 | 18.33° C | 55% | 1023.1 hPa | - | - | - | - |
| 1777195339 | -5° C | 100% | 4.8 hPa | - | - | - | - |
| 1777195180 | 18.33° C | 56% | 1023.3 hPa | - | - | - | - |
| 1777194279 | 17.78° C | 56% | 1023.2 hPa | - | - | - | - |
| 1777193378 | 17.22° C | 56% | 1023.1 hPa | - | - | - | - |
| 1777192477 | 17.22° C | 55% | 1023 hPa | - | - | - | - |
| 1777192270 | 17.78° C | 55% | 1023 hPa | - | - | - | - |
* Rain since midnight (hover to see other rain measurements)
** Current wind speed in m/s (hover to see current wind gust speed)